createdAt,value
2018-12-17T00:02:11.980Z,31.33
2018-12-17T00:04:37.812Z,30.65
2018-12-17T00:07:03.670Z,29.13
2018-12-17T00:09:29.405Z,31.57
2018-12-17T00:11:55.166Z,31.23
2018-12-17T00:14:20.904Z,30.80
2018-12-17T00:16:46.732Z,29.60
2018-12-17T00:19:12.575Z,30.93
2018-12-17T00:21:38.310Z,28.90
2018-12-17T00:24:04.056Z,29.60
2018-12-17T00:26:29.791Z,31.57
2018-12-17T00:28:55.565Z,30.83
2018-12-17T00:31:21.303Z,29.40
2018-12-17T00:33:47.167Z,29.73
2018-12-17T00:36:12.922Z,31.73
2018-12-17T00:38:38.784Z,30.70
2018-12-17T00:41:04.791Z,30.67
2018-12-17T00:43:30.951Z,30.50
2018-12-17T00:45:56.695Z,30.77
2018-12-17T00:48:22.651Z,30.23
2018-12-17T00:50:48.385Z,31.53
2018-12-17T00:53:14.122Z,29.97
2018-12-17T00:55:39.960Z,30.03
2018-12-17T00:58:05.814Z,30.23
2018-12-17T01:00:31.550Z,30.87
2018-12-17T01:02:57.535Z,31.67
2018-12-17T01:05:23.375Z,31.87
2018-12-17T01:07:49.203Z,31.83
2018-12-17T01:10:15.042Z,31.40
2018-12-17T01:12:40.784Z,31.57
2018-12-17T01:15:06.841Z,33.50
2018-12-17T01:17:32.683Z,31.97
2018-12-17T01:19:58.449Z,31.70
2018-12-17T01:22:24.184Z,30.87
2018-12-17T01:24:49.942Z,30.97
2018-12-17T01:27:15.794Z,31.90
2018-12-17T01:29:41.539Z,32.30
2018-12-17T01:32:07.376Z,32.20
2018-12-17T01:34:33.108Z,30.83
2018-12-17T01:36:58.934Z,30.50
2018-12-17T01:39:24.708Z,31.67
2018-12-17T01:41:50.445Z,31.23
2018-12-17T01:44:16.199Z,30.47
2018-12-17T01:46:41.945Z,30.37
2018-12-17T01:49:07.698Z,31.60
2018-12-17T01:51:33.548Z,31.27
2018-12-17T01:53:59.287Z,31.23
2018-12-17T01:56:25.054Z,32.43
2018-12-17T01:58:50.786Z,30.70
2018-12-17T02:01:16.530Z,30.67
2018-12-17T02:03:42.295Z,31.63
2018-12-17T02:06:08.147Z,33.70
2018-12-17T02:08:34.020Z,29.20
2018-12-17T02:10:59.980Z,30.77
2018-12-17T02:13:25.716Z,30.93
2018-12-17T02:15:51.564Z,31.13
2018-12-17T02:18:17.403Z,31.87
2018-12-17T02:20:43.163Z,31.67
2018-12-17T02:23:08.903Z,31.27
2018-12-17T02:25:34.658Z,31.33
2018-12-17T02:28:00.587Z,31.43
2018-12-17T02:30:26.320Z,31.43
2018-12-17T02:32:52.170Z,31.20
2018-12-17T02:35:18.056Z,31.63
2018-12-17T02:37:43.828Z,31.77
2018-12-17T02:40:09.583Z,31.43
2018-12-17T02:42:35.388Z,31.60
2018-12-17T02:45:01.487Z,31.13
2018-12-17T02:47:27.210Z,32.00
2018-12-17T02:49:52.959Z,31.97
2018-12-17T02:52:18.700Z,31.60
2018-12-17T02:54:51.320Z,31.40
2018-12-17T02:57:17.077Z,30.70
2018-12-17T02:59:42.836Z,30.23
2018-12-17T03:02:08.804Z,30.87
2018-12-17T03:04:34.624Z,30.73
2018-12-17T03:07:00.368Z,31.90
2018-12-17T03:09:26.101Z,30.87
2018-12-17T03:11:51.944Z,31.50
2018-12-17T03:14:17.694Z,31.70
2018-12-17T03:16:43.449Z,31.87
2018-12-17T03:19:09.194Z,32.63
2018-12-17T03:21:35.050Z,30.97
2018-12-17T03:24:01.009Z,30.83
2018-12-17T03:26:26.943Z,31.17
2018-12-17T03:28:52.696Z,30.43
2018-12-17T03:31:18.449Z,30.97
2018-12-17T03:33:44.392Z,30.80
2018-12-17T03:36:10.147Z,32.20
2018-12-17T03:38:35.898Z,31.77
2018-12-17T03:41:01.966Z,32.93
2018-12-17T03:43:27.706Z,31.87
2018-12-17T03:45:53.560Z,32.37
2018-12-17T03:48:19.431Z,32.07
2018-12-17T03:50:45.423Z,32.00
2018-12-17T03:53:11.167Z,33.13
2018-12-17T03:55:36.899Z,32.33
2018-12-17T03:58:02.776Z,34.47
2018-12-17T04:00:28.515Z,34.10
2018-12-17T04:02:54.281Z,33.07
2018-12-17T04:05:20.021Z,33.07
2018-12-17T04:07:45.760Z,33.83
2018-12-17T04:10:11.693Z,33.27
2018-12-17T04:12:37.527Z,32.57
2018-12-17T04:15:04.457Z,34.53
2018-12-17T04:17:30.191Z,34.18
2018-12-17T04:19:56.014Z,34.43
2018-12-17T04:22:21.838Z,33.87
2018-12-17T04:24:47.570Z,36.13
2018-12-17T04:27:13.304Z,35.47
2018-12-17T04:29:39.055Z,35.30
2018-12-17T04:32:04.801Z,32.90
2018-12-17T04:34:30.665Z,35.03
2018-12-17T04:36:56.389Z,36.30
2018-12-17T04:39:22.328Z,34.70
2018-12-17T04:41:48.047Z,35.57
2018-12-17T04:44:13.782Z,35.13
2018-12-17T04:46:39.495Z,35.00
2018-12-17T04:49:05.219Z,36.43
2018-12-17T04:51:31.160Z,36.83
2018-12-17T04:53:56.893Z,36.57
2018-12-17T04:56:22.810Z,37.13
2018-12-17T04:58:48.534Z,35.90
2018-12-17T05:01:14.246Z,36.87
2018-12-17T05:03:39.976Z,37.57
2018-12-17T05:06:05.794Z,37.40
2018-12-17T05:08:31.630Z,36.67
2018-12-17T05:10:57.351Z,39.53
2018-12-17T05:13:23.079Z,35.93
2018-12-17T05:15:48.799Z,35.53
2018-12-17T05:18:14.519Z,37.97
2018-12-17T05:20:40.243Z,35.97
2018-12-17T05:23:05.984Z,35.30
2018-12-17T05:25:31.720Z,38.07
2018-12-17T05:27:57.462Z,37.63
2018-12-17T05:30:23.182Z,36.30
2018-12-17T05:32:48.911Z,36.60
2018-12-17T05:35:14.658Z,36.83
2018-12-17T05:37:40.383Z,36.60
2018-12-17T05:40:06.414Z,37.07
2018-12-17T05:42:32.135Z,37.20
2018-12-17T05:44:57.876Z,38.80
2018-12-17T05:47:23.603Z,37.73
2018-12-17T05:49:49.340Z,38.60
2018-12-17T05:52:15.159Z,38.07
2018-12-17T05:54:40.997Z,37.00
2018-12-17T05:57:06.718Z,38.63
2018-12-17T05:59:32.446Z,38.97
2018-12-17T06:01:58.174Z,37.93
2018-12-17T06:04:23.991Z,37.53
2018-12-17T06:06:49.715Z,37.60
2018-12-17T06:09:22.594Z,39.93
2018-12-17T06:11:48.519Z,37.65
2018-12-17T06:14:14.243Z,38.40
2018-12-17T06:16:39.959Z,39.67
2018-12-17T06:19:05.777Z,40.27
2018-12-17T06:21:31.507Z,39.77
2018-12-17T06:23:57.255Z,39.30
2018-12-17T06:26:23.090Z,38.23
2018-12-17T06:28:48.811Z,39.93
2018-12-17T06:31:14.634Z,40.90
2018-12-17T06:33:40.447Z,38.80
2018-12-17T06:36:06.271Z,41.13
2018-12-17T06:38:31.994Z,40.73
2018-12-17T06:40:57.827Z,41.00
2018-12-17T06:43:23.551Z,38.53
2018-12-17T06:45:49.287Z,40.10
2018-12-17T06:48:17.209Z,40.93
2018-12-17T06:50:42.842Z,39.58
2018-12-17T06:53:08.575Z,39.53
2018-12-17T06:55:34.399Z,41.47
2018-12-17T06:58:00.525Z,38.03
2018-12-17T07:00:26.293Z,40.35
2018-12-17T07:02:52.075Z,41.00
2018-12-17T07:05:17.897Z,41.63
2018-12-17T07:07:43.621Z,40.63
2018-12-17T07:10:09.455Z,39.77
2018-12-17T07:12:35.182Z,39.87
2018-12-17T07:15:00.990Z,39.53
2018-12-17T07:17:26.819Z,41.43
2018-12-17T07:19:54.137Z,39.77
2018-12-17T07:22:20.098Z,41.98
2018-12-17T07:24:45.818Z,40.57
2018-12-17T07:27:11.599Z,40.37
2018-12-17T07:29:37.422Z,39.30
2018-12-17T07:32:03.375Z,38.17
2018-12-17T07:34:29.311Z,42.60
2018-12-17T07:36:55.964Z,41.07
2018-12-17T07:39:21.798Z,40.58
2018-12-17T07:41:47.638Z,43.03
2018-12-17T07:44:13.466Z,42.53
2018-12-17T07:46:39.267Z,40.63
2018-12-17T07:49:05.107Z,41.40
2018-12-17T07:51:30.889Z,41.37
2018-12-17T07:53:56.686Z,40.07
2018-12-17T07:56:22.515Z,41.87
2018-12-17T07:58:48.359Z,41.57
2018-12-17T08:01:14.112Z,41.23
2018-12-17T08:03:39.831Z,39.80
2018-12-17T08:06:05.669Z,40.70
2018-12-17T08:08:35.371Z,41.67
2018-12-17T08:10:59.243Z,39.53
2018-12-17T08:13:25.075Z,40.70
2018-12-17T08:15:50.795Z,42.70
2018-12-17T08:18:20.879Z,41.83
2018-12-17T08:20:47.498Z,42.25
2018-12-17T08:23:13.330Z,42.40
2018-12-17T08:25:39.057Z,42.03
2018-12-17T08:28:04.899Z,42.67
2018-12-17T08:30:30.718Z,42.93
2018-12-17T08:32:56.447Z,42.57
2018-12-17T08:35:22.162Z,43.80
2018-12-17T08:37:47.914Z,43.57
2018-12-17T08:40:13.649Z,42.63
2018-12-17T08:42:39.379Z,44.73
2018-12-17T08:45:05.254Z,43.93
2018-12-17T08:47:30.995Z,44.33
2018-12-17T08:49:56.710Z,43.60
2018-12-17T08:52:22.458Z,42.40
2018-12-17T08:54:48.486Z,44.83
2018-12-17T08:57:14.221Z,45.20
2018-12-17T08:59:39.937Z,44.23
2018-12-17T09:02:05.765Z,46.33
2018-12-17T09:04:31.589Z,47.37
2018-12-17T09:06:57.298Z,42.90
2018-12-17T09:09:23.068Z,42.90
2018-12-17T09:11:48.910Z,44.60
2018-12-17T09:14:14.637Z,43.30
2018-12-17T09:16:40.379Z,45.83
2018-12-17T09:19:08.136Z,43.13
2018-12-17T09:21:33.870Z,44.45
2018-12-17T09:23:59.699Z,44.10
2018-12-17T09:26:25.542Z,46.03
2018-12-17T09:28:51.263Z,46.43
2018-12-17T09:31:16.983Z,43.40
2018-12-17T09:33:42.999Z,46.40
2018-12-17T09:36:08.822Z,44.83
2018-12-17T09:38:34.555Z,44.30
2018-12-17T09:41:00.396Z,43.70
2018-12-17T09:43:26.127Z,43.40
2018-12-17T09:45:51.962Z,44.57
2018-12-17T09:48:17.835Z,45.80
2018-12-17T09:50:43.554Z,43.37
2018-12-17T09:53:09.376Z,42.83
2018-12-17T09:55:36.361Z,43.83
2018-12-17T09:58:02.544Z,44.70
2018-12-17T10:00:28.284Z,44.13
2018-12-17T10:02:54.059Z,44.10
2018-12-17T10:05:19.887Z,44.70
2018-12-17T10:07:45.638Z,46.83
2018-12-17T10:10:11.467Z,44.10
2018-12-17T10:12:37.183Z,47.83
2018-12-17T10:15:03.816Z,47.30
2018-12-17T10:17:29.538Z,45.17
2018-12-17T10:19:55.271Z,45.57
2018-12-17T10:22:20.997Z,46.90
2018-12-17T10:24:46.846Z,48.07
2018-12-17T10:27:12.670Z,44.77
2018-12-17T10:29:38.506Z,46.90
2018-12-17T10:32:04.347Z,45.93
2018-12-17T10:34:30.197Z,47.40
2018-12-17T10:36:55.918Z,46.13
2018-12-17T10:39:21.739Z,46.27
2018-12-17T10:41:48.142Z,46.67
2018-12-17T10:44:14.220Z,48.08
2018-12-17T10:46:39.979Z,46.90
2018-12-17T10:49:05.711Z,49.17
2018-12-17T10:51:32.137Z,47.53
2018-12-17T10:53:57.883Z,47.85
2018-12-17T10:56:23.632Z,48.67
2018-12-17T10:58:49.351Z,47.90
2018-12-17T11:01:21.469Z,48.43
2018-12-17T11:03:49.538Z,46.63
2018-12-17T11:06:16.731Z,50.08
2018-12-17T11:08:42.646Z,47.65
2018-12-17T11:11:08.374Z,48.87
2018-12-17T11:13:34.712Z,47.33
2018-12-17T11:16:01.177Z,46.92
2018-12-17T11:18:27.035Z,47.67
2018-12-17T11:20:52.767Z,47.97
2018-12-17T11:23:18.617Z,46.17
2018-12-17T11:25:44.433Z,44.80
2018-12-17T11:28:10.254Z,47.30
2018-12-17T11:30:36.315Z,44.70
2018-12-17T11:33:02.036Z,44.48
2018-12-17T11:35:27.888Z,45.77
2018-12-17T11:37:53.615Z,45.70
2018-12-17T11:40:19.339Z,44.20
2018-12-17T11:42:45.327Z,44.40
2018-12-17T11:45:11.199Z,44.90
2018-12-17T11:47:36.928Z,45.03
2018-12-17T11:50:04.279Z,44.07
2018-12-17T11:52:30.001Z,42.27
2018-12-17T11:54:55.851Z,41.73
2018-12-17T11:57:27.479Z,42.97
2018-12-17T11:59:53.247Z,41.42
2018-12-17T12:02:19.074Z,43.43
2018-12-17T12:04:44.806Z,43.83
2018-12-17T12:07:10.533Z,44.33
2018-12-17T12:09:36.260Z,41.93
2018-12-17T12:12:02.086Z,42.93
2018-12-17T12:14:27.806Z,42.37
2018-12-17T12:16:53.536Z,40.27
2018-12-17T12:19:19.272Z,42.00
2018-12-17T12:21:45.004Z,42.57
2018-12-17T12:24:10.723Z,42.33
2018-12-17T12:26:36.433Z,41.37
2018-12-17T12:29:02.276Z,43.20
2018-12-17T12:31:28.006Z,40.23
2018-12-17T12:33:53.824Z,40.83
2018-12-17T12:36:19.570Z,41.77
2018-12-17T12:38:45.407Z,40.90
2018-12-17T12:41:11.240Z,42.60
2018-12-17T12:43:37.071Z,42.57
2018-12-17T12:46:02.897Z,39.97
2018-12-17T12:48:28.620Z,41.90
2018-12-17T12:50:54.351Z,41.10
2018-12-17T12:55:52.709Z,41.65
2018-12-17T12:58:18.437Z,40.57
2018-12-17T13:00:44.159Z,39.17
2018-12-17T13:03:09.890Z,38.30
2018-12-17T13:05:35.621Z,38.80
2018-12-17T13:08:01.347Z,39.70
2018-12-17T13:10:27.170Z,39.40
2018-12-17T13:12:53.027Z,39.50
2018-12-17T13:15:18.946Z,39.47
2018-12-17T13:17:45.598Z,38.50
2018-12-17T13:20:11.628Z,39.53
2018-12-17T13:22:37.453Z,38.60
2018-12-17T13:25:04.186Z,37.77
2018-12-17T13:27:29.914Z,37.48
2018-12-17T13:29:55.623Z,39.37
2018-12-17T13:32:21.351Z,38.77
2018-12-17T13:34:47.095Z,41.23
2018-12-17T13:37:12.818Z,39.63
2018-12-17T13:39:38.838Z,38.53
2018-12-17T13:42:04.566Z,39.40
2018-12-17T13:44:30.280Z,38.27
2018-12-17T13:46:56.098Z,38.17
2018-12-17T13:49:21.958Z,41.50
2018-12-17T13:51:53.826Z,39.70
2018-12-17T13:54:19.546Z,40.15
2018-12-17T13:56:45.271Z,40.13
2018-12-17T13:59:11.017Z,40.27
2018-12-17T14:01:36.735Z,38.03
2018-12-17T14:04:02.574Z,38.17
2018-12-17T14:06:28.382Z,38.67
2018-12-17T14:08:54.205Z,40.07
2018-12-17T14:11:19.924Z,39.43
2018-12-17T14:13:45.743Z,39.87
2018-12-17T14:16:13.474Z,38.50
2018-12-17T14:18:45.357Z,38.50
2018-12-17T14:21:17.192Z,40.08
2018-12-17T14:23:42.918Z,40.78
2018-12-17T14:26:08.765Z,40.37
2018-12-17T14:28:34.485Z,38.07
2018-12-17T14:31:00.298Z,40.57
2018-12-17T14:33:26.011Z,37.73
2018-12-17T14:35:57.845Z,38.97
2018-12-17T14:38:23.604Z,45.73
2018-12-17T14:40:49.435Z,39.73
2018-12-17T14:43:15.307Z,40.30
2018-12-17T14:45:41.097Z,39.53
2018-12-17T14:48:06.935Z,74.63
2018-12-17T14:50:32.734Z,41.13
2018-12-17T14:53:05.490Z,46.37
2018-12-17T14:55:31.214Z,43.55
2018-12-17T14:57:57.030Z,37.60
2018-12-17T15:00:22.858Z,38.17
2018-12-17T15:02:48.590Z,42.00
2018-12-17T15:05:14.311Z,38.20
2018-12-17T15:07:40.020Z,35.90
2018-12-17T15:10:06.044Z,42.77
2018-12-17T15:12:31.855Z,42.20
2018-12-17T15:14:57.570Z,58.00
2018-12-17T15:17:23.374Z,53.30
2018-12-17T15:19:49.210Z,39.17
2018-12-17T15:22:15.019Z,38.13
2018-12-17T15:24:40.858Z,37.43
2018-12-17T15:27:06.674Z,37.17
2018-12-17T15:29:32.619Z,38.83
2018-12-17T15:31:58.434Z,38.90
2018-12-17T15:34:24.167Z,36.43
2018-12-17T15:36:49.890Z,35.60
2018-12-17T15:39:15.728Z,34.90
2018-12-17T15:41:41.429Z,35.63
2018-12-17T15:44:07.146Z,50.87
2018-12-17T15:46:32.880Z,33.10
2018-12-17T15:48:58.810Z,33.10
2018-12-17T15:51:24.522Z,36.03
2018-12-17T15:53:50.246Z,35.53
2018-12-17T15:56:15.955Z,36.13
2018-12-17T15:58:41.772Z,35.97
2018-12-17T16:01:07.605Z,38.43
2018-12-17T16:03:33.311Z,38.17
2018-12-17T16:05:59.038Z,37.90
2018-12-17T16:08:31.743Z,38.57
2018-12-17T16:10:57.573Z,41.80
2018-12-17T16:13:23.274Z,40.73
2018-12-17T16:15:49.098Z,42.13
2018-12-17T16:18:14.903Z,45.43
2018-12-17T16:20:40.658Z,42.87
2018-12-17T16:23:06.442Z,46.40
2018-12-17T16:25:32.366Z,43.30
2018-12-17T16:27:58.066Z,43.83
2018-12-17T16:30:23.782Z,42.63
2018-12-17T16:32:49.603Z,45.67
2018-12-17T16:35:15.322Z,44.07
2018-12-17T16:37:47.951Z,43.30
2018-12-17T16:40:13.793Z,44.38
2018-12-17T16:42:39.670Z,42.23
2018-12-17T16:45:06.602Z,40.27
2018-12-17T16:47:32.421Z,39.78
2018-12-17T16:49:58.178Z,42.90
2018-12-17T16:52:24.002Z,42.90
2018-12-17T16:54:49.714Z,41.13
2018-12-17T16:57:15.425Z,42.57
2018-12-17T16:59:41.145Z,42.63
2018-12-17T17:02:06.969Z,43.20
2018-12-17T17:04:32.678Z,43.07
2018-12-17T17:06:58.393Z,42.07
2018-12-17T17:09:24.214Z,43.07
2018-12-17T17:11:50.134Z,41.33
2018-12-17T17:14:15.842Z,42.47
2018-12-17T17:16:41.692Z,42.50
2018-12-17T17:19:07.516Z,40.73
2018-12-17T17:21:33.234Z,43.57
2018-12-17T17:23:59.051Z,40.90
2018-12-17T17:26:24.776Z,41.17
2018-12-17T17:28:50.588Z,40.60
2018-12-17T17:31:16.321Z,40.37
2018-12-17T17:33:49.006Z,40.93
2018-12-17T17:36:21.722Z,41.68
2018-12-17T17:38:47.439Z,43.25
2018-12-17T17:41:13.146Z,39.20
2018-12-17T17:43:38.850Z,40.77
2018-12-17T17:46:04.680Z,41.43
2018-12-17T17:48:30.403Z,39.97
2018-12-17T17:50:56.263Z,42.37
2018-12-17T17:53:22.191Z,40.63
2018-12-17T17:55:47.931Z,39.80
2018-12-17T17:58:13.661Z,42.33
2018-12-17T18:00:39.382Z,38.10
2018-12-17T18:03:05.117Z,40.80
2018-12-17T18:05:30.975Z,39.90
2018-12-17T18:07:56.703Z,41.43
2018-12-17T18:10:22.414Z,40.83
2018-12-17T18:12:48.130Z,39.83
2018-12-17T18:15:13.954Z,41.70
2018-12-17T18:17:39.710Z,39.90
2018-12-17T18:20:05.542Z,40.77
2018-12-17T18:22:31.759Z,41.30
2018-12-17T18:24:57.495Z,39.25
2018-12-17T18:27:23.226Z,43.57
2018-12-17T18:29:48.946Z,41.77
2018-12-17T18:32:14.929Z,44.50
2018-12-17T18:34:40.794Z,43.23
2018-12-17T18:37:06.606Z,42.97
2018-12-17T18:39:32.439Z,45.23
2018-12-17T18:41:58.258Z,43.93
2018-12-17T18:44:24.081Z,43.80
2018-12-17T18:46:50.012Z,46.23
2018-12-17T18:49:15.869Z,42.90
2018-12-17T18:51:41.690Z,44.57
2018-12-17T18:54:07.526Z,44.93
2018-12-17T18:56:33.347Z,44.17
2018-12-17T18:58:59.079Z,45.67
2018-12-17T19:01:24.898Z,45.70
2018-12-17T19:03:50.624Z,46.33
2018-12-17T19:06:16.452Z,47.67
2018-12-17T19:08:42.228Z,45.30
2018-12-17T19:11:08.006Z,46.67
2018-12-17T19:13:33.734Z,46.80
2018-12-17T19:15:59.662Z,46.50
2018-12-17T19:18:25.490Z,48.23
2018-12-17T19:20:51.280Z,43.53
2018-12-17T19:23:17.003Z,45.40
2018-12-17T19:25:42.760Z,43.87
2018-12-17T19:28:08.555Z,42.70
2018-12-17T19:30:34.270Z,45.20
2018-12-17T19:33:00.120Z,46.43
2018-12-17T19:35:25.850Z,44.10
2018-12-17T19:37:51.562Z,45.07
2018-12-17T19:40:17.387Z,45.40
2018-12-17T19:42:43.211Z,44.00
2018-12-17T19:45:09.173Z,45.17
2018-12-17T19:47:34.998Z,44.43
2018-12-17T19:50:00.726Z,48.00
2018-12-17T19:52:26.490Z,44.70
2018-12-17T19:54:52.214Z,46.30
2018-12-17T19:57:17.930Z,46.60
2018-12-17T19:59:43.697Z,46.73
2018-12-17T20:02:09.562Z,44.40
2018-12-17T20:04:41.541Z,44.70
2018-12-17T20:07:07.290Z,45.58
2018-12-17T20:09:33.042Z,47.17
2018-12-17T20:11:58.875Z,44.50
2018-12-17T20:14:24.756Z,44.50
2018-12-17T20:16:50.470Z,49.20
2018-12-17T20:19:16.194Z,49.27
2018-12-17T20:21:42.015Z,48.00
2018-12-17T20:24:07.744Z,46.77
2018-12-17T20:26:33.563Z,45.63
2018-12-17T20:28:59.275Z,46.17
2018-12-17T20:31:24.991Z,45.87
2018-12-17T20:33:50.714Z,46.40
2018-12-17T20:36:16.438Z,47.27
2018-12-17T20:38:42.159Z,45.93
2018-12-17T20:41:07.886Z,46.93
2018-12-17T20:43:33.699Z,46.47
2018-12-17T20:45:59.441Z,46.70
2018-12-17T20:48:25.158Z,44.57
2018-12-17T20:50:51.020Z,50.43
2018-12-17T20:53:16.918Z,48.83
2018-12-17T20:55:42.887Z,44.37
2018-12-17T20:58:10.404Z,46.13
2018-12-17T21:00:36.563Z,46.25
2018-12-17T21:03:02.768Z,46.60
2018-12-17T21:05:28.611Z,45.23
2018-12-17T21:07:54.545Z,46.90
2018-12-17T21:10:20.388Z,43.40
2018-12-17T21:12:46.142Z,46.77
2018-12-17T21:15:12.073Z,42.87
2018-12-17T21:17:37.908Z,44.13
2018-12-17T21:20:04.455Z,41.93
2018-12-17T21:22:30.621Z,41.95
2018-12-17T21:24:56.369Z,41.70
2018-12-17T21:27:22.093Z,43.57
2018-12-17T21:29:48.257Z,42.90
2018-12-17T21:32:13.992Z,43.65
2018-12-17T21:34:39.802Z,41.60
2018-12-17T21:37:05.598Z,43.17
2018-12-17T21:39:31.572Z,40.37
2018-12-17T21:41:57.740Z,41.13
2018-12-17T21:44:23.919Z,41.28
2018-12-17T21:46:49.797Z,39.98
2018-12-17T21:49:16.144Z,37.63
2018-12-17T21:51:41.875Z,39.40
2018-12-17T21:54:07.602Z,37.50
2018-12-17T21:56:33.309Z,36.53
2018-12-17T21:58:59.035Z,35.77
2018-12-17T22:01:24.746Z,35.33
2018-12-17T22:03:50.470Z,35.30
2018-12-17T22:06:16.750Z,33.90
2018-12-17T22:08:43.059Z,35.58
2018-12-17T22:11:09.319Z,33.08
2018-12-17T22:13:35.259Z,32.95
2018-12-17T22:16:01.330Z,34.97
2018-12-17T22:18:27.923Z,34.27
2018-12-17T22:20:54.255Z,36.73
2018-12-17T22:23:20.130Z,35.05
2018-12-17T22:25:45.913Z,36.50
2018-12-17T22:28:12.016Z,35.07
2018-12-17T22:30:38.165Z,35.78
2018-12-17T22:33:04.510Z,34.58
2018-12-17T22:35:30.632Z,35.28
2018-12-17T22:37:56.844Z,34.43
2018-12-17T22:40:23.148Z,36.33
2018-12-17T22:42:49.243Z,34.95
2018-12-17T22:45:15.793Z,35.55
2018-12-17T22:47:41.592Z,36.48
2018-12-17T22:50:08.241Z,33.30
2018-12-17T22:52:34.416Z,36.60
2018-12-17T22:55:00.533Z,35.17
2018-12-17T22:57:26.581Z,34.85
2018-12-17T22:59:52.577Z,33.35
2018-12-17T23:02:18.837Z,35.90
2018-12-17T23:04:45.970Z,36.83
2018-12-17T23:07:12.410Z,36.90
2018-12-17T23:09:50.738Z,36.98
2018-12-17T23:12:29.057Z,39.03
2018-12-17T23:15:07.272Z,39.80
2018-12-17T23:17:38.786Z,39.73
2018-12-17T23:20:05.883Z,43.05
2018-12-17T23:22:31.797Z,40.23
2018-12-17T23:24:57.566Z,40.63
2018-12-17T23:27:23.398Z,41.63
2018-12-17T23:29:49.496Z,42.50
2018-12-17T23:32:15.504Z,38.95
2018-12-17T23:34:41.326Z,39.98
2018-12-17T23:37:07.043Z,43.23
2018-12-17T23:39:33.284Z,39.03
2018-12-17T23:42:00.646Z,40.92
2018-12-17T23:44:26.504Z,47.60
2018-12-17T23:46:52.441Z,47.63
2018-12-17T23:49:18.153Z,48.07
2018-12-17T23:51:43.984Z,51.30
2018-12-17T23:54:09.798Z,46.87
2018-12-17T23:56:35.505Z,50.43
2018-12-17T23:59:01.222Z,51.40
